Kensington, Canada
Current Conditions -  °F | °C
As of 12:00 PM on Friday 24 Oct 2014 (Local Time) from CYYG Reporting Station
Light Rain Light Rain  
Wind Chill: 54°   Ceiling: 600
Heat Index: 54°   Visibility: 8mi
Dew Point: 52°   Wind: 10mph
Humidity: 94%   Direction: 40°NE
Pressure: 29.6"   Gusts: NA
Location:  46.43°N, 63.65°W
Report Text: CYYG 241500Z 04009KT 8SM -RA BKN006 OVC025 12/11 A2960 RMK SF7NS1 SLP023
Loading
Personal Weather Stations






























Interactive Weather Map
Tropical Storm Tracking
New forecast layout! Learn more

10-Day Weather Forecast

Advertisements
Track Severe Weather on mobile